< < Back
Terminal Aerodrome Forecast


Current Version              Previous Versions:   1  2  3  4  5  6  7  8  9  

Terminal Aerodrome Forecast

670
FTUS44 KBMX 071140
TAFMGM
TAF
KMGM 071140Z 0712/0812 00000KT P6SM SKC
     FM071600 25005KT P6SM SKC=



Latest METAR

429
SAUS80 KWBC 080200 RRB
MTRMGM
METAR KMGM 080153Z 17004KT 10SM CLR 28/23 A3012 RMK AO2 SLP195
T02830233


USA.gov is the U.S. government's official web portal to all federal, state and local government web resources and services.